Aviation Digital Data Service (ADDS)

Output produced by TAFs form (0123 UTC 23 July 2017)
found at http://www.aviationweather.gov/adds/tafs/
 
METAR text: OKBK 230100Z 22004KT CAVOK 30/17 Q0996 NOSIG
Conditions at: OKBK (KUWAIT INTL (MIL, KW) observed 0100 UTC 23 July 2017
Temperature: 30.0°C (86°F)
Dewpoint: 17.0°C (63°F) [RH = 46%]
Pressure (altimeter): 29.41 inches Hg (996.0 mb)
Winds: from the SW (220 degrees) at 5 MPH (4 knots; 2.1 m/s)
Visibility: 6 or more miles (10+ km)
Ceiling: ceiling and visibility are OK
Clouds: unknown
Weather: no significant weather observed at this time

Forecast for: OKBK (KUWAIT INTL (MIL, KW)
Text: TAF OKBK 222245Z 2300/2406 27010KT 7000 SKC
Forecast period: 0000 to 0800 UTC 23 July 2017
Forecast type: FROM: standard forecast or significant change
Winds: from the W (270 degrees) at 12 MPH (10 knots; 5.2 m/s)
Visibility: 4 miles (7 km)
Clouds: clear skies
Weather: no significant weather forecast for this period
Text: BECMG 2308/2310 14008G18KT
Forecast period: 0800 UTC 23 July 2017 to 0600 UTC 24 July 2017
Forecast type: BECOMING: Conditions expected to become as follows by 1000 UTC 23 July 2017
Winds: from the SE (140 degrees) at 9 MPH (8 knots; 4.2 m/s)
gusting to 21 MPH (18 knots; 9.4 m/s)
Visibility: 4 miles (7 km)
Clouds: clear skies
Weather: no significant weather forecast for this period